Loging...

KPDC, Korea Polar Data Center

Korea Polar Data Center Scientific observations and results from Antarctica shall
be exchanged and made freely available

Keyword Search

Advanced Search

Search 278 data out of 28,363

Metadata Search Results1
No. Title Reg. Date
1 [KOPRI-KOREAMET-00000068]Elephant Moraine 13002 2019-12-05
2 [KOPRI-KOREAMET-00000163]Elephant Moraine 14031 2019-11-20
3 [KOPRI-KPDC-00001411]CO2/Soil temperature profile of Alaska permafrost site in 2019 2019-11-13
4 [KOPRI-KPDC-00001410]Soil moisture and humidity data collected from climate manipulation plots in Cambridge Bay, Canada in 2019 2019-11-13
5 [KOPRI-KPDC-00001292]Genome sequence of Paenibacillus sp R4 2019-11-08
6 [KOPRI-KPDC-00001279]Interaction map between micro-environments and biological responses in terrestrial ecosystem of KGL01 in Barton Peninsula, King George Island 2019-10-17
7 [KOPRI-KOREAMET-00000145]Elephant Moraine 14013 2019-09-30
8 [KOPRI-KOREAMET-00000206]Elephant Moraine 14074 2019-09-30
9 [KOPRI-KOREAMET-00000129]Reckling Peak 14003 2019-09-30
10 [KOPRI-KOREAMET-00000131]Reckling Peak 14005 2019-09-30
11 [KOPRI-KOREAMET-00000149]Elephant Moraine 14017 2019-09-30
12 [KOPRI-KOREAMET-00000057]Frontier Mountain 10097 2019-09-30
13 [KOPRI-KOREAMET-00000060]Frontier Mountain 10102 2019-09-30
14 [KOPRI-KOREAMET-00000014]Thiel Mountains 07009 2019-09-30
15 [KOPRI-KOREAMET-00000084]Elephant Moraine 13018 2019-09-30
16 [KOPRI-KOREAMET-00000066]Mount DeWitt 12007 2019-09-30
17 [KOPRI-KPDC-00000707]3D floorplan for CAD of Jang Bogo Station 2019-06-18
18 [KOPRI-KPDC-00001135]CO2/Soil temperature profile of Alaska permafrost site in 2018 2018-12-10
19 [KOPRI-KPDC-00001128]Soil moisture and soil temperature data collected from climate manipulation plots in Cambridge Bay, Canada in 2018 2018-11-13
20 [KOPRI-KPDC-00001014]Genome sequences of eight screened bacteria from Alaskan soil cores. 2018-10-10
21 [KOPRI-KPDC-00000913]Digital Map around the Jang Bogo Station, Antarctica 2018-06-26
22 [KOPRI-KOREAMET-00000132]Reckling Peak 14006 2018-04-23
23 [KOPRI-KOREAMET-00000185]Elephant Moraine 14053 2018-04-22
24 [KOPRI-KOREAMET-00000181]Elephant Moraine 14049 2018-04-22
25 [KOPRI-KOREAMET-00000188]Elephant Moraine 14056 2018-04-22
26 [KOPRI-KOREAMET-00000190]Elephant Moraine 14058 2018-04-17
27 [KOPRI-KPDC-00000946]Advanced TIROS Operational Vertical Sounder (ATOVS) around the Jang Bogo Station, 2015-2016 2018-01-03
28 [KOPRI-KPDC-00000947]Advanced Very High Resolution Radiometer (AVHRR) around the Jang Bogo Station, 2015-2016 2018-01-03
29 [KOPRI-KPDC-00000948]Moderate Resolution Imaging Spectroradiometer (MODIS) around the Jang Bogo Station, 2015-2016 2018-01-03
30 [KOPRI-KOREAMET-00000106]Elephant Moraine 13040 2017-12-07
31 [KOPRI-KOREAMET-00000107]Elephant Moraine 13041 2017-12-07
32 [KOPRI-KOREAMET-00000108]Elephant Moraine 13042 2017-12-07
33 [KOPRI-KOREAMET-00000109]Elephant Moraine 13043 2017-12-07
34 [KOPRI-KOREAMET-00000110]Elephant Moraine 13044 2017-12-07
35 [KOPRI-KPDC-00000881]CO2 auto-chamber data of Council site in 2017 2017-12-05
36 [KOPRI-KPDC-00000880]Soil moisture and soil temperature data collected from climate manipulation plots in Cambridge Bay, Canada in 2017 2017-12-04
37 [KOPRI-KOREAMET-00000119]Elephant Moraine 13053 2017-11-16
38 [KOPRI-KOREAMET-00000120]Elephant Moraine 13054 2017-11-16
39 [KOPRI-KOREAMET-00000121]Elephant Moraine 13055 2017-11-16
40 [KOPRI-KOREAMET-00000122]Elephant Moraine 13056 2017-11-16
41 [KOPRI-KPDC-00000792]Air temperature, air humidity, PAR, substrate temperature, and substrate humidity data from Barton Peninsular in King George Island collected in 2016 2017-10-10
42 [KOPRI-KPDC-00000767]2016-2017 Barton Peninsular micro-climate data_HOBO soil temp., PAR, air temp., relative humidity 2017-09-27
43 [KOPRI-KPDC-00000766]Soil samples of the Antarctic King Sejong Station from Barton Peninsular collected in 2017 2017-09-27
44 [KOPRI-KOREAMET-00000126]Mount DeWitt 13001 2017-07-12
45 [KOPRI-KOREAMET-00000191]Elephant Moraine 14059 2017-04-12
46 [KOPRI-KOREAMET-00000192]Elephant Moraine 14060 2017-04-12
47 [KOPRI-KOREAMET-00000201]Elephant Moraine 14069 2017-04-12
48 [KOPRI-KOREAMET-00000205]Elephant Moraine 14073 2017-04-12
49 [KOPRI-KOREAMET-00000204]Elephant Moraine 14072 2017-04-12
50 [KOPRI-KOREAMET-00000200]Elephant Moraine 14068 2017-04-12
51 [KOPRI-KOREAMET-00000199]Elephant Moraine 14067 2017-04-12
52 [KOPRI-KOREAMET-00000197]Elephant Moraine 14065 2017-04-12
53 [KOPRI-KOREAMET-00000196]Elephant Moraine 14064 2017-04-12
54 [KOPRI-KOREAMET-00000195]Elephant Moraine 14063 2017-04-12
55 [KOPRI-KOREAMET-00000194]Elephant Moraine 14062 2017-04-12
56 [KOPRI-KOREAMET-00000189]Elephant Moraine 14057 2017-04-12
57 [KOPRI-KOREAMET-00000187]Elephant Moraine 14055 2017-04-12
58 [KOPRI-KOREAMET-00000203]Elephant Moraine 14071 2017-03-09
59 [KOPRI-KOREAMET-00000202]Elephant Moraine 14070 2017-03-09
60 [KOPRI-KOREAMET-00000198]Elephant Moraine 14066 2017-03-09
61 [KOPRI-KOREAMET-00000193]Elephant Moraine 14061 2017-03-09
62 [KOPRI-KPDC-00000700]Soil physical and chemical properties in the glacier foreland of Svalbard in 2012 2016-12-02
63 [KOPRI-KPDC-00000701]Soil physical and chemical properties in Council, Alaska in 2011 2016-12-02
64 [KOPRI-KPDC-00000704]Soil physical and chemical properties in Cambridge Bay, Canada in 2012 2016-12-02
65 [KOPRI-KPDC-00000702]Soil physical and chemical properties in Council, Alaska in 2012 2016-12-02
66 [KOPRI-KPDC-00000706]Soil physical and chemical properties in Cambridge Bay, Canada in 2015 2016-12-02
67 [KOPRI-KPDC-00000705]Soil physical and chemical properties in Cambridge Bay, Canada in 2013 2016-12-02
68 [KOPRI-KPDC-00000699]Soil physical and chemical properties in the glacier foreland of Svalbard in 2011 2016-12-02
69 [KOPRI-KPDC-00000703]Soil physical and chemical properties in Council, Alaska in 2014 2016-12-02
70 [KOPRI-KPDC-00000697]Soil physical and chemical properties in Zackenberg, Greenland in 2011 2016-12-02
71 [KOPRI-KPDC-00000698]Soil physical and chemical properties in Zackenberg, Greenland in 2012 2016-12-02
72 [KOPRI-KPDC-00000692]Soil microbial community data in the glacier forelands in Svalbard, 2011 2016-11-28
73 [KOPRI-KPDC-00000693]Soil microbial community data in Alaska, 2011 2016-11-28
74 [KOPRI-KPDC-00000686]CO2 auto-chamber data of Council site in 2015 2016-11-25
75 [KOPRI-KPDC-00000683]CO2 auto-chamber data of Council site in 2011 2016-11-25
76 [KOPRI-KPDC-00000687]CO2 auto-chamber data of Council site in 2016 2016-11-25
77 [KOPRI-KPDC-00000684]CO2 auto-chamber data of Council site in 2012 2016-11-25
78 [KOPRI-KPDC-00000685]CO2 auto-chamber data of Council site in 2014 2016-11-25
79 [KOPRI-KPDC-00000682]CO2 auto-chamber data of Council site in 2010 2016-11-25
80 [KOPRI-KPDC-00000676]Permafrost core samples in Council, Alaska, USA in 2016 2016-11-18
81 [KOPRI-KPDC-00000675]Soil moisture and soil temperature data collected from climate manipulation plots in Cambridge Bay, Canada in 2016 2016-11-18
82 [KOPRI-KPDC-00000672]Soil enzyme activities before and 1, 3 years after climate manipulation 2016-11-17
83 [KOPRI-KPDC-00000673]CO2 and CH4 fluxes before and 1, 3 years after climate manipulation 2016-11-17
84 [KOPRI-KPDC-00000668]Soil samples from glacier forelands of Midtre and Austre Lovénbreen and Bloomstrandbreen in Svalbard 2016-10-31
85 [KOPRI-KPDC-00000628]NIR and RGB images from Barton Peninsular in King George Island collected in 2016 2016-10-19
86 [KOPRI-KPDC-00000626]Soil samples of the Antarctic King Sejong Station from Barton Peninsular collected in 2016 2016-10-19
87 [KOPRI-KPDC-00000623]Air temperature, air humidity, PAR, substrate temperature, and substrate humidity data from Barton Peninsular in King George Island collected in 2015 2016-10-18
88 [KOPRI-KPDC-00000620]2015-2016 JBS_micro-climate data_HOBO_soil temp.,PAR,air temp.,relative humidity 2016-10-13
89 [KOPRI-KPDC-00000618]Soil and Fresh/Sea water samples from Barton Peninsular collected in 2015-2016 2016-10-13
90 [KOPRI-KPDC-00000621]Soil and Fresh water samples of the Antarctic Jang Bogo Station from Terra Nova Bay collected in 2016 2016-10-13
91 [KOPRI-KOREAMET-00000066]Mount DeWitt 12007 2016-08-17
92 [KOPRI-KOREAMET-00000124]Mount Fleming 13002 2016-07-25
93 [KOPRI-KOREAMET-00000081]Elephant Moraine 13015 2016-07-18
94 [KOPRI-KOREAMET-00000111]Elephant Moraine 13045 2016-07-18
95 [KOPRI-KOREAMET-00000105]Elephant Moraine 13039 2016-07-18
96 [KOPRI-KOREAMET-00000112]Elephant Moraine 13046 2016-07-18
97 [KOPRI-KOREAMET-00000114]Elephant Moraine 13048 2016-07-18
98 [KOPRI-KOREAMET-00000115]Elephant Moraine 13049 2016-07-18
99 [KOPRI-KOREAMET-00000116]Elephant Moraine 13050 2016-07-18
100 [KOPRI-KOREAMET-00000117]Elephant Moraine 13051 2016-07-18